Time;durP1;ratioP1;P1;durP2;ratioP2;P2;SDS_P1;SDS_P2;PMS_P1;PMS_P2;Temp;Humidity;BMP_temperature;BMP_pressure;BME280_temperature;BME280_humidity;BME280_pressure;Samples;Min_cycle;Max_cycle;Signal;HPM_P1;HPM_P2
2022/04/22 00:00:04;;;;;;;9.95;6.40;;;;;;;4.10;100.00;99011.16;1731025;82;20891;-70
2022/04/22 00:02:36;;;;;;;9.48;5.75;;;;;;;4.08;100.00;99010.64;1738118;82;21049;-70
2022/04/22 00:05:12;;;;;;;8.73;6.37;;;;;;;4.09;100.00;99015.53;1737392;82;21191;-70
2022/04/22 00:07:45;;;;;;;10.70;6.17;;;;;;;4.10;100.00;99019.86;1710656;82;21510;-70
2022/04/22 00:10:16;;;;;;;10.13;5.90;;;;;;;4.10;100.00;99018.50;1733262;81;21042;-70
2022/04/22 00:12:48;;;;;;;10.18;6.60;;;;;;;4.10;100.00;99017.15;1737882;82;21068;-69
2022/04/22 00:15:21;;;;;;;10.15;6.92;;;;;;;4.10;100.00;99017.15;1737634;82;20919;-70
2022/04/22 00:17:48;;;;;;;12.03;7.78;;;;;;;4.10;100.00;99023.39;1728359;81;21190;-69
2022/04/22 00:20:18;;;;;;;11.30;6.75;;;;;;;4.11;100.00;99020.13;1709523;82;20887;-69
2022/04/22 00:22:56;;;;;;;11.65;7.47;;;;;;;4.12;100.00;99021.75;1719310;82;20955;-69
2022/04/22 00:25:27;;;;;;;12.95;8.03;;;;;;;4.12;100.00;99008.16;1735964;81;20923;-69
2022/04/22 00:28:02;;;;;;;15.45;8.80;;;;;;;4.12;100.00;99008.16;1736053;81;20940;-70
2022/04/22 00:30:33;;;;;;;15.25;9.35;;;;;;;4.17;100.00;99008.92;1734932;82;21119;-69
2022/04/22 00:33:06;;;;;;;15.65;9.28;;;;;;;4.19;100.00;98998.58;1732128;82;20922;-70
2022/04/22 00:35:39;;;;;;;16.57;10.00;;;;;;;4.19;100.00;99004.56;1729903;81;20971;-69
2022/04/22 00:38:13;;;;;;;16.15;10.00;;;;;;;4.18;100.00;98998.87;1726058;82;20935;-69
2022/04/22 00:40:40;;;;;;;19.37;10.08;;;;;;;4.18;100.00;99003.75;1718973;82;20931;-69
2022/04/22 00:43:23;;;;;;;16.27;10.00;;;;;;;4.18;100.00;99002.39;1734814;82;20907;-69
2022/04/22 00:45:53;;;;;;;16.12;10.88;;;;;;;4.18;100.00;99001.03;1737099;82;20871;-69
2022/04/22 00:48:26;;;;;;;19.20;10.72;;;;;;;4.19;100.00;99001.30;1724911;82;20918;-70
2022/04/22 00:50:52;;;;;;;21.30;12.03;;;;;;;4.20;100.00;98999.39;1728036;81;22540;-70
2022/04/22 00:53:23;;;;;;;21.30;13.13;;;;;;;4.20;100.00;99003.47;1715602;82;20972;-69
2022/04/22 00:55:50;;;;;;;22.77;12.90;;;;;;;4.21;100.00;99003.73;1704397;83;21174;-69
2022/04/22 00:58:21;;;;;;;17.02;10.82;;;;;;;4.22;100.00;99002.63;1677149;84;20904;-70
2022/04/22 01:00:50;;;;;;;19.17;11.85;;;;;;;4.22;100.00;98989.05;1699363;83;20935;-69
2022/04/22 01:03:25;;;;;;;19.17;11.22;;;;;;;4.25;100.00;98994.72;1648284;85;20907;-69
2022/04/22 01:11:39;;;;;;;19.87;11.40;;;;;;;4.32;100.00;98987.58;1638219;84;20967;-69
2022/04/22 01:14:10;;;;;;;24.57;13.30;;;;;;;4.34;100.00;98984.03;1673815;84;21070;-69
2022/04/22 01:16:39;;;;;;;24.92;14.53;;;;;;;4.38;100.00;98986.44;1680258;84;20983;-69
2022/04/22 01:19:09;;;;;;;22.07;14.00;;;;;;;4.37;100.00;98968.51;1698003;83;44266;-69
2022/04/22 01:21:39;;;;;;;24.67;14.80;;;;;;;4.37;100.00;98976.66;1665731;84;20943;-69
2022/04/22 01:24:14;;;;;;;24.85;16.95;;;;;;;4.40;100.00;98973.37;1662368;85;21415;-69
2022/04/22 01:26:48;;;;;;;24.20;15.95;;;;;;;4.43;100.00;98972.79;1688722;84;20871;-70
2022/04/22 01:29:19;;;;;;;28.40;18.27;;;;;;;4.45;100.00;98975.22;1733992;81;20907;-70
2022/04/22 01:31:50;;;;;;;28.75;16.95;;;;;;;4.47;100.00;98973.02;1725804;82;21075;-70
2022/04/22 01:34:23;;;;;;;27.55;17.92;;;;;;;4.50;100.00;98977.88;1732627;82;21229;-70
2022/04/22 01:36:48;;;;;;;27.57;18.87;;;;;;;4.52;100.00;98973.77;1738850;82;20952;-71
2022/04/22 01:39:24;;;;;;;29.55;18.80;;;;;;;4.52;100.00;98964.26;1693382;83;20903;-72
2022/04/22 01:41:58;;;;;;;31.33;19.50;;;;;;;4.56;100.00;98974.00;1731580;82;20904;-71
2022/04/22 01:44:28;;;;;;;30.20;18.48;;;;;;;4.56;100.00;98974.00;1732714;82;21026;-72
2022/04/22 01:47:00;;;;;;;31.87;19.48;;;;;;;4.57;100.00;98976.98;1688312;83;21243;-70
2022/04/22 01:49:29;;;;;;;33.80;20.90;;;;;;;4.59;100.00;98968.80;1689441;84;20939;-70
2022/04/22 01:52:00;;;;;;;34.40;20.75;;;;;;;4.61;100.00;98970.67;1679311;85;21451;-70
2022/04/22 01:54:30;;;;;;;30.43;20.32;;;;;;;4.63;100.00;98970.35;1656054;84;21072;-70
2022/04/22 01:56:58;;;;;;;33.63;20.88;;;;;;;4.67;100.00;98967.86;1734814;82;20944;-70
2022/04/22 01:59:27;;;;;;;31.68;21.05;;;;;;;4.69;100.00;98967.02;1704242;83;21458;-71
2022/04/22 02:02:03;;;;;;;31.97;19.52;;;;;;;4.68;100.00;98964.05;1712087;82;20896;-70
2022/04/22 02:04:34;;;;;;;34.23;22.02;;;;;;;4.72;100.00;98971.87;1724733;82;21458;-70
2022/04/22 02:07:12;;;;;;;35.08;22.27;;;;;;;4.71;100.00;98967.55;1745295;82;20955;-70
2022/04/22 02:09:36;;;;;;;34.05;20.45;;;;;;;4.73;100.00;98968.06;1698161;82;20938;-70
2022/04/22 02:12:08;;;;;;;39.27;23.67;;;;;;;4.74;100.00;98977.84;1702221;83;21174;-70
2022/04/22 02:14:40;;;;;;;32.58;21.17;;;;;;;4.74;100.00;98974.56;1717651;82;20984;-70
2022/04/22 02:17:08;;;;;;;39.25;22.30;;;;;;;4.74;100.00;98962.33;1732041;82;20947;-70
2022/04/22 02:19:40;;;;;;;34.53;21.93;;;;;;;4.75;100.00;98966.67;1731992;82;20991;-70
2022/04/22 02:22:11;;;;;;;33.38;22.95;;;;;;;4.76;100.00;98965.56;1735917;82;21069;-70
2022/04/22 02:24:45;;;;;;;35.78;23.18;;;;;;;4.77;100.00;98969.91;1731592;82;20855;-70
2022/04/22 02:30:06;;;;;;;35.50;22.77;;;;;;;4.78;100.00;98966.09;1700161;83;20963;-69
2022/04/22 02:32:35;;;;;;;31.12;21.10;;;;;;;4.80;100.00;98968.52;1732379;82;21082;-70
2022/04/22 02:35:15;;;;;;;33.30;22.22;;;;;;;4.80;100.00;98968.52;1733243;82;20851;-69
2022/04/22 02:37:43;;;;;;;33.73;22.22;;;;;;;4.79;100.00;98974.50;1730766;82;20939;-69
2022/04/22 02:45:26;;;;;;;35.68;23.32;;;;;;;4.83;100.00;98973.38;1735165;82;21392;-69
2022/04/22 02:45:37;;;;;;;36.45;22.58;;;;;;;4.83;100.00;98973.38;1735172;82;21517;-69
2022/04/22 02:48:08;;;;;;;35.58;22.95;;;;;;;4.82;100.00;98970.39;1734304;82;21047;-69
2022/04/22 02:50:38;;;;;;;33.95;21.85;;;;;;;4.83;100.00;98970.10;1738160;82;21186;-69
2022/04/22 02:53:12;;;;;;;35.43;23.20;;;;;;;4.87;100.00;98977.94;1693807;83;20930;-69
2022/04/22 02:55:49;;;;;;;34.73;22.93;;;;;;;4.88;100.00;98971.40;1718269;83;21553;-69
2022/04/22 02:58:23;;;;;;;34.25;22.20;;;;;;;4.89;100.00;98970.84;1698241;82;20990;-69
2022/04/22 03:00:49;;;;;;;;;;;;;;;4.91;100.00;98978.97;1728477;82;20919;-69
2022/04/22 03:03:18;;;;;;;30.27;21.12;;;;;;;4.92;100.00;98979.78;1742090;82;21839;-69
2022/04/22 03:05:48;;;;;;;32.58;21.80;;;;;;;4.92;100.00;98982.50;1740073;82;21497;-69
2022/04/22 03:08:20;;;;;;;35.52;21.55;;;;;;;4.94;100.00;98980.30;1739780;81;20987;-69
2022/04/22 03:10:51;;;;;;;31.97;21.70;;;;;;;4.94;100.00;98980.30;1707978;82;26885;-69
2022/04/22 03:13:23;;;;;;;34.00;22.77;;;;;;;4.96;100.00;98980.81;1719821;82;26920;-69
2022/04/22 03:15:50;;;;;;;32.53;21.30;;;;;;;4.96;100.00;98980.81;1734913;82;21157;-69
2022/04/22 03:18:27;;;;;;;34.35;22.40;;;;;;;4.96;100.00;98980.27;1732069;82;20931;-70
2022/04/22 03:20:58;;;;;;;32.05;21.00;;;;;;;4.96;100.00;98980.27;1725719;83;21501;-69
2022/04/22 03:23:27;;;;;;;31.50;21.35;;;;;;;4.98;100.00;98986.77;1732902;82;21485;-69
2022/04/22 03:26:04;;;;;;;33.78;22.67;;;;;;;4.98;100.00;98992.21;1736974;82;20923;-69
2022/04/22 03:28:34;;;;;;;36.50;21.85;;;;;;;5.00;100.00;98992.73;1719895;83;21169;-69
2022/04/22 03:31:05;;;;;;;34.65;23.98;;;;;;;5.01;100.00;98998.43;1729957;81;20900;-70
2022/04/22 03:33:32;;;;;;;36.77;23.60;;;;;;;5.07;100.00;98998.62;1723478;83;21442;-69
2022/04/22 03:36:05;;;;;;;35.33;23.52;;;;;;;5.09;100.00;98997.78;1716570;82;21502;-69
2022/04/22 03:38:40;;;;;;;36.83;23.98;;;;;;;5.09;100.00;98997.78;1690866;82;21008;-69
2022/04/22 03:41:06;;;;;;;34.03;23.05;;;;;;;5.08;100.00;98996.16;1717935;82;21458;-69
2022/04/22 03:43:41;;;;;;;34.38;24.67;;;;;;;5.14;100.00;99005.88;1733576;82;20995;-69
2022/04/22 03:46:14;;;;;;;39.63;25.10;;;;;;;5.18;100.00;99003.37;1720443;82;21502;-69
2022/04/22 03:48:55;;;;;;;39.58;25.23;;;;;;;5.19;100.00;99004.45;1733495;82;21022;-69
2022/04/22 03:51:26;;;;;;;39.85;26.50;;;;;;;5.22;100.00;99002.47;1704856;82;21011;-69
2022/04/22 03:53:53;;;;;;;36.17;23.20;;;;;;;5.22;100.00;99002.47;1702665;82;20975;-68
2022/04/22 03:59:15;;;;;;;38.48;25.10;;;;;;;5.27;100.00;99000.22;1726925;82;21467;-70
2022/04/22 04:01:54;;;;;;;33.08;23.25;;;;;;;5.26;100.00;98995.88;1728777;82;21034;-71
2022/04/22 04:04:19;;;;;;;35.63;24.12;;;;;;;5.29;100.00;99000.19;1732040;82;21510;-70
2022/04/22 04:06:49;;;;;;;34.05;23.40;;;;;;;5.31;100.00;98997.98;1724995;81;21902;-70
2022/04/22 04:17:46;;;;;;;35.83;23.45;;;;;;;5.37;100.00;99000.63;1638015;86;21030;-70
2022/04/22 04:23:16;;;;;;;32.65;22.80;;;;;;;5.43;100.00;99002.98;1602147;86;20995;-71
2022/04/22 04:25:45;;;;;;;34.25;21.35;;;;;;;5.42;100.00;99005.45;1659444;86;21294;-71
2022/04/22 04:28:15;;;;;;;28.95;20.77;;;;;;;5.43;100.00;99013.06;1660072;85;20928;-71
2022/04/22 04:30:44;;;;;;;30.72;21.02;;;;;;;5.41;100.00;99014.72;1659721;86;21480;-71
2022/04/22 04:33:12;;;;;;;31.62;22.93;;;;;;;5.39;100.00;99012.03;1660107;86;21066;-71
2022/04/22 04:35:47;;;;;;;34.35;22.85;;;;;;;5.41;100.00;99012.55;1645980;86;21460;-70
2022/04/22 04:38:22;;;;;;;33.20;22.35;;;;;;;5.41;100.00;99016.63;1637519;86;20944;-71
2022/04/22 04:40:52;;;;;;;34.53;23.18;;;;;;;5.42;100.00;99023.70;1660146;86;21028;-71
2022/04/22 04:43:26;;;;;;;34.30;23.65;;;;;;;5.41;100.00;99029.69;1637434;86;20927;-70
2022/04/22 04:45:58;;;;;;;35.50;23.65;;;;;;;5.43;100.00;99030.76;1637548;86;20983;-70
2022/04/22 04:48:31;;;;;;;35.17;23.87;;;;;;;5.42;100.00;99028.59;1659619;86;20967;-70
2022/04/22 04:51:07;;;;;;;34.45;23.62;;;;;;;5.42;100.00;99028.59;1659429;86;20908;-70
2022/04/22 04:53:34;;;;;;;34.95;22.40;;;;;;;5.47;100.00;99038.59;1660273;86;21046;-70
2022/04/22 04:56:08;;;;;;;37.58;23.50;;;;;;;5.47;100.00;99038.59;1637485;86;20955;-70
2022/04/22 04:58:36;;;;;;;35.08;23.77;;;;;;;5.47;100.00;99036.68;1660547;86;21108;-71
2022/04/22 05:01:13;;;;;;;33.38;22.95;;;;;;;5.52;100.00;99033.08;1660113;86;21058;-70
2022/04/22 05:03:47;;;;;;;32.17;22.70;;;;;;;5.52;100.00;99033.08;1660249;86;20923;-70
2022/04/22 05:06:20;;;;;;;40.38;24.20;;;;;;;5.56;100.00;99034.91;1660225;86;21015;-71
2022/04/22 05:08:52;;;;;;;30.80;21.57;;;;;;;5.59;100.00;99037.05;1660204;86;20979;-69
2022/04/22 05:11:22;;;;;;;32.55;22.40;;;;;;;5.61;100.00;99036.75;1637782;86;21503;-70
2022/04/22 05:13:59;;;;;;;31.20;21.82;;;;;;;5.62;100.00;99046.55;1659391;85;20876;-70
2022/04/22 05:16:30;;;;;;;32.15;22.20;;;;;;;5.63;100.00;99046.80;1660152;86;20924;-70
2022/04/22 05:19:00;;;;;;;34.27;21.12;;;;;;;5.63;100.00;99047.61;1660110;86;20967;-70
2022/04/22 05:21:33;;;;;;;35.58;25.37;;;;;;;5.62;100.00;99051.44;1660272;85;20956;-70
2022/04/22 05:24:07;;;;;;;42.78;30.68;;;;;;;5.59;100.00;99056.66;1637713;86;20983;-70
2022/04/22 05:26:38;;;;;;;39.50;27.58;;;;;;;5.59;100.00;99056.66;1654021;86;21039;-71
2022/04/22 05:34:54;;;;;;;44.42;31.35;;;;;;;5.61;100.00;99065.34;1660225;85;20861;-70
2022/04/22 05:37:25;;;;;;;42.83;30.37;;;;;;;5.63;100.00;99059.86;1659435;86;21910;-70
2022/04/22 05:39:55;;;;;;;41.80;28.10;;;;;;;5.67;100.00;99064.72;1660229;86;20948;-71
2022/04/22 05:42:26;;;;;;;39.80;27.52;;;;;;;5.68;100.00;99075.88;1660288;86;21003;-70
2022/04/22 05:44:57;;;;;;;46.20;31.62;;;;;;;5.69;100.00;99074.22;1660205;86;21557;-71
2022/04/22 05:47:32;;;;;;;49.20;33.55;;;;;;;5.73;100.00;99077.16;1660391;85;21059;-71
2022/04/22 05:50:06;;;;;;;51.68;33.33;;;;;;;5.76;100.00;99077.93;1660507;86;20944;-71
2022/04/22 05:52:41;;;;;;;42.67;29.63;;;;;;;5.79;100.00;99087.66;1660269;86;20951;-70
2022/04/22 05:55:17;;;;;;;48.35;30.00;;;;;;;5.83;100.00;99085.15;1647426;85;21346;-69
2022/04/22 05:57:50;;;;;;;45.98;33.08;;;;;;;5.87;100.00;99086.17;1684319;85;21464;-73
2022/04/22 06:00:20;;;;;;;51.18;34.30;;;;;;;5.87;100.00;99086.17;1691421;84;21460;-69
2022/04/22 06:02:50;;;;;;;47.60;34.60;;;;;;;5.90;100.00;99089.16;1667372;84;20974;-77
2022/04/22 06:05:22;;;;;;;45.50;33.05;;;;;;;5.92;100.00;99085.58;1699209;82;20978;-75
2022/04/22 06:10:43;;;;;;;50.95;34.00;;;;;;;6.02;100.00;99094.70;1740945;81;20990;-81
2022/04/22 06:13:21;;;;;;;44.00;30.82;;;;;;;6.05;100.00;99094.92;1719226;82;20943;-76
2022/04/22 06:15:51;;;;;;;49.30;30.92;;;;;;;6.06;100.00;99092.45;1705027;82;20927;-74
2022/04/22 06:18:27;;;;;;;53.78;29.25;;;;;;;6.12;100.00;99106.25;1720156;82;20891;-76
2022/04/22 06:20:58;;;;;;;48.67;35.17;;;;;;;6.12;100.00;99106.25;1707917;82;20951;-76
2022/04/22 06:23:27;;;;;;;47.20;32.53;;;;;;;6.08;100.00;99098.97;1729730;81;21518;-73
2022/04/22 06:25:59;;;;;;;45.03;30.72;;;;;;;6.10;100.00;99111.19;1724082;82;21096;-73
2022/04/22 06:28:28;;;;;;;48.52;32.42;;;;;;;6.10;100.00;99120.73;1699832;82;21054;-71
2022/04/22 06:31:02;;;;;;;60.00;40.83;;;;;;;6.12;100.00;99123.16;1738384;82;21458;-73
2022/04/22 06:33:36;;;;;;;53.42;35.30;;;;;;;6.13;100.00;99116.05;1734554;81;21443;-73
2022/04/22 06:36:14;;;;;;;49.10;32.93;;;;;;;6.18;100.00;99118.69;1708141;83;21455;-72
2022/04/22 06:38:47;;;;;;;47.25;31.75;;;;;;;6.22;100.00;99117.55;1734316;82;20852;-72
2022/04/22 06:47:01;;;;;;;48.30;31.15;;;;;;;6.40;100.00;99124.04;1707578;82;21588;-77
2022/04/22 06:49:30;;;;;;;59.53;37.85;;;;;;;6.42;100.00;99123.19;1703455;83;21427;-77
2022/04/22 06:51:57;;;;;;;47.55;31.93;;;;;;;6.47;100.00;99117.65;1690924;83;20927;-72
2022/04/22 06:54:31;;;;;;;49.53;34.43;;;;;;;6.48;100.00;99128.81;1689467;84;21060;-76
2022/04/22 06:56:57;;;;;;;49.65;34.10;;;;;;;6.52;100.00;99127.11;1696671;83;21027;-81
2022/04/22 06:59:31;;;;;;;44.73;30.65;;;;;;;6.54;100.00;99128.42;1681253;84;20959;-72
2022/04/22 07:01:58;;;;;;;;;;;;;;;6.56;100.00;99133.58;1678269;85;21066;-76
2022/04/22 07:04:26;;;;;;;62.45;45.52;;;;;;;6.56;100.00;99133.58;1734732;81;20494;-72
2022/04/22 07:06:56;;;;;;;49.73;35.68;;;;;;;6.56;100.00;99137.12;1707477;83;21867;-72
2022/04/22 07:09:23;;;;;;;51.13;34.63;;;;;;;6.58;100.00;99134.91;1706044;83;21054;-79
2022/04/22 07:11:54;;;;;;;63.20;42.20;;;;;;;6.62;100.00;99137.29;1709388;82;21556;-70
2022/04/22 07:14:24;;;;;;;70.32;44.55;;;;;;;6.65;100.00;99145.98;1734417;81;20896;-74
2022/04/22 07:16:58;;;;;;;66.90;44.00;;;;;;;6.67;100.00;99151.39;1733186;82;20958;-78
2022/04/22 07:19:34;;;;;;;;;;;;;;;6.63;100.00;99149.81;1739816;82;21190;-77
2022/04/22 07:22:01;;;;;;;56.58;39.25;;;;;;;6.63;100.00;99152.55;1737560;81;20159;-76
2022/04/22 07:24:33;;;;;;;63.40;45.33;;;;;;;6.61;100.00;99156.13;1736538;81;20947;-73
2022/04/22 07:27:05;;;;;;;56.02;37.98;;;;;;;6.60;100.00;99157.23;1697337;83;20991;-74
2022/04/22 07:29:38;;;;;;;;;;;;;;;6.58;100.00;99166.82;1698694;83;21062;-77
2022/04/22 07:32:16;;;;;;;51.53;36.63;;;;;;;6.55;100.00;99165.50;1693626;83;21233;-77
2022/04/22 07:34:46;;;;;;;54.15;39.08;;;;;;;6.53;100.00;99164.98;1688200;83;21062;-74
2022/04/22 07:37:14;;;;;;;53.33;38.95;;;;;;;6.55;100.00;99164.69;1732134;81;21541;-77
2022/04/22 07:39:48;;;;;;;54.55;35.75;;;;;;;6.58;100.00;99164.91;1731067;82;21047;-76
2022/04/22 07:42:25;;;;;;;55.63;39.50;;;;;;;6.61;100.00;99161.58;1734374;82;21042;-77
2022/04/22 07:47:38;;;;;;;51.95;33.98;;;;;;;6.74;100.00;99168.73;1730725;82;20927;-83
2022/04/22 07:50:10;;;;;;;49.98;33.83;;;;;;;6.78;100.00;99175.22;1728570;82;21538;-70
2022/04/22 07:52:38;;;;;;;53.55;33.80;;;;;;;6.74;100.00;99181.82;1674597;85;20916;-73
2022/04/22 07:55:06;;;;;;;67.50;46.42;;;;;;;6.74;100.00;99183.73;1671887;85;21547;-70
2022/04/22 07:57:35;;;;;;;141.95;88.25;;;;;;;6.74;100.00;99190.56;1667400;85;21153;-69
2022/04/22 08:00:05;;;;;;;61.00;42.48;;;;;;;6.74;100.00;99183.73;1636613;85;21510;-68
2022/04/22 08:02:41;;;;;;;72.62;48.95;;;;;;;6.73;100.00;99184.30;1688887;84;21494;-70
2022/04/22 08:05:12;;;;;;;59.27;38.25;;;;;;;6.74;100.00;99191.92;1661213;85;21136;-72
2022/04/22 08:07:42;;;;;;;59.03;40.03;;;;;;;6.71;100.00;99191.16;1681200;83;21082;-72
2022/04/22 08:10:13;;;;;;;51.48;36.05;;;;;;;6.71;100.00;99195.25;1728798;82;21070;-75
2022/04/22 08:12:42;;;;;;;48.45;33.53;;;;;;;6.71;100.00;99192.52;1735058;82;21526;-76
2022/04/22 08:15:14;;;;;;;50.30;35.08;;;;;;;6.69;100.00;99190.64;1705372;82;22160;-70
2022/04/22 08:17:46;;;;;;;68.02;41.40;;;;;;;6.72;100.00;99196.31;1678862;84;20987;-74
2022/04/22 08:20:17;;;;;;;52.62;34.23;;;;;;;6.73;100.00;99197.94;1680049;84;21577;-71
2022/04/22 08:22:48;;;;;;;52.00;33.18;;;;;;;6.75;100.00;99194.35;1669091;85;21289;-74
2022/04/22 08:25:18;;;;;;;55.40;35.45;;;;;;;6.77;100.00;99195.42;1659493;86;21118;-72
2022/04/22 08:27:57;;;;;;;52.23;34.38;;;;;;;6.82;100.00;99195.33;1637202;86;20931;-72
2022/04/22 08:30:20;;;;;;;48.55;32.83;;;;;;;6.90;100.00;99196.01;1657030;85;21065;-70
2022/04/22 08:32:53;;;;;;;49.75;34.05;;;;;;;6.96;100.00;99196.95;1669916;85;21442;-71
2022/04/22 08:35:29;;;;;;;51.08;33.40;;;;;;;7.00;100.00;99197.72;1636815;84;20951;-73
2022/04/22 08:38:03;;;;;;;55.15;34.13;;;;;;;7.05;100.00;99201.72;1657906;86;21019;-69
2022/04/22 08:40:29;;;;;;;50.20;31.68;;;;;;;7.12;100.00;99196.13;1658610;86;21078;-74
2022/04/22 08:43:04;;;;;;;51.75;28.85;;;;;;;7.19;100.00;99195.17;1636711;86;21107;-71
2022/04/22 08:45:33;;;;;;;48.95;31.00;;;;;;;7.26;100.00;99192.86;1652623;86;26678;-72
2022/04/22 08:50:48;;;;;;;50.00;29.57;;;;;;;7.41;100.00;99193.12;1619935;88;20974;-71
2022/04/22 08:53:21;;;;;;;48.92;30.85;;;;;;;7.43;100.00;99190.89;1649081;86;20963;-72
2022/04/22 08:55:57;;;;;;;43.17;28.47;;;;;;;7.40;100.00;99196.16;1658637;86;21066;-74
2022/04/22 08:58:26;;;;;;;45.75;30.82;;;;;;;7.36;100.00;99193.77;1636615;86;21051;-74
2022/04/22 09:00:57;;;;;;;48.00;30.72;;;;;;;7.32;100.00;99190.03;1657402;86;21051;-75
2022/04/22 09:03:29;;;;;;;49.08;30.05;;;;;;;7.32;100.00;99191.39;1653937;86;21054;-70
2022/04/22 09:05:59;;;;;;;46.48;29.87;;;;;;;7.34;100.00;99195.44;1641411;85;20995;-77
2022/04/22 09:08:29;;;;;;;45.10;29.40;;;;;;;7.40;100.00;99198.88;1675586;85;21010;-70
2022/04/22 09:11:03;;;;;;;46.00;30.45;;;;;;;7.46;100.00;99199.04;1686402;83;21552;-71
2022/04/22 09:13:35;;;;;;;50.85;30.52;;;;;;;7.53;100.00;99202.14;1690970;84;20994;-76
2022/04/22 09:16:07;;;;;;;42.65;28.05;;;;;;;7.63;100.00;99196.48;1664462;85;20923;-74
2022/04/22 09:18:40;;;;;;;43.98;27.62;;;;;;;7.75;100.00;99198.14;1680959;84;21537;-74
2022/04/22 09:21:18;;;;;;;43.48;27.02;;;;;;;7.83;100.00;99196.05;1733820;82;20942;-70
2022/04/22 09:23:55;;;;;;;40.03;26.52;;;;;;;7.90;100.00;99195.64;1742859;81;20927;-73
2022/04/22 09:26:30;;;;;;;38.90;26.23;;;;;;;7.98;100.00;99200.94;1713508;83;20959;-72
2022/04/22 09:29:02;;;;;;;38.85;25.82;;;;;;;8.04;100.00;99201.08;1718355;82;21000;-77
2022/04/22 09:31:49;;;;;;;37.13;25.62;;;;;;;8.08;100.00;99196.06;1679268;82;21011;-75
2022/04/22 09:34:42;;;;;;;39.98;26.48;;;;;;;8.14;100.00;99200.83;1724761;82;21112;-77
2022/04/22 09:43:09;;;;;;;38.58;25.43;;;;;;;8.28;100.00;99204.33;1727004;82;21037;-82
2022/04/22 09:45:43;;;;;;;41.30;26.20;;;;;;;8.35;100.00;99204.75;1720171;82;21070;-73
2022/04/22 09:48:33;;;;;;;41.53;26.10;;;;;;;8.41;100.00;99212.28;1712127;82;21077;-72
2022/04/22 09:50:54;;;;;;;40.45;26.37;;;;;;;8.49;100.00;99204.70;1694903;82;21026;-73
2022/04/22 09:53:34;;;;;;;44.77;26.87;;;;;;;8.54;100.00;99213.59;1721005;82;21175;-72
2022/04/22 09:56:08;;;;;;;37.08;25.30;;;;;;;8.62;100.00;99214.78;1729070;82;21513;-73
2022/04/22 09:58:40;;;;;;;41.40;26.35;;;;;;;8.65;100.00;99210.61;1724427;82;21406;-71
2022/04/22 10:01:10;;;;;;;43.10;27.47;;;;;;;8.62;100.00;99225.73;1736065;81;20939;-76
2022/04/22 10:03:39;;;;;;;40.15;26.48;;;;;;;8.56;100.00;99218.76;1732916;82;20915;-75
2022/04/22 10:06:10;;;;;;;37.17;26.80;;;;;;;8.55;100.00;99223.42;1723456;82;21507;-76
2022/04/22 10:08:40;;;;;;;36.40;25.02;;;;;;;8.55;100.00;99217.14;1723764;82;20919;-76
2022/04/22 10:11:13;;;;;;;42.97;27.87;;;;;;;8.57;100.00;99217.64;1736451;81;20978;-76
2022/04/22 10:13:50;;;;;;;45.50;28.17;;;;;;;8.59;100.00;99217.58;1729525;81;20931;-77
2022/04/22 10:16:21;;;;;;;37.08;26.95;;;;;;;8.59;100.00;99224.98;1707297;82;20950;-76
2022/04/22 10:18:53;;;;;;;58.07;31.20;;;;;;;8.62;100.00;99225.73;1727575;82;21020;-74
2022/04/22 10:21:27;;;;;;;44.63;27.70;;;;;;;8.64;100.00;99224.05;1731449;81;21784;-84
2022/04/22 10:24:00;;;;;;;33.53;24.18;;;;;;;8.64;100.00;99230.89;1704978;82;20901;-82
2022/04/22 10:26:30;;;;;;;37.88;24.00;;;;;;;8.62;100.00;99237.23;1723359;82;20937;-85
2022/04/22 10:28:59;;;;;;;33.65;23.45;;;;;;;8.62;100.00;99234.49;1722527;81;20922;-83
2022/04/22 10:31:33;;;;;;;38.60;23.15;;;;;;;8.60;100.00;99231.51;1728776;81;21473;-76
2022/04/22 10:34:11;;;;;;;32.48;22.20;;;;;;;8.63;100.00;99244.32;1725673;83;20881;-71
2022/04/22 10:36:44;;;;;;;33.55;23.35;;;;;;;8.62;100.00;99242.70;1733414;81;20997;-72
2022/04/22 10:39:14;;;;;;;36.68;23.83;;;;;;;8.56;100.00;99242.83;1727729;81;21481;-71
2022/04/22 10:41:46;;;;;;;34.33;24.07;;;;;;;8.52;100.00;99239.09;1725244;82;20982;-71
2022/04/22 10:47:16;;;;;;;33.95;23.10;;;;;;;8.50;100.00;99237.22;1697228;83;21067;-71
2022/04/22 10:49:46;;;;;;;36.33;23.75;;;;;;;8.51;100.00;99237.47;1716217;81;21854;-74
2022/04/22 10:52:19;;;;;;;31.52;22.17;;;;;;;8.54;100.00;99231.37;1732177;82;21012;-82
2022/04/22 10:55:01;;;;;;;33.60;22.50;;;;;;;8.59;100.00;99229.89;1733231;82;21520;-75
2022/04/22 10:57:34;;;;;;;32.10;23.62;;;;;;;8.70;100.00;99233.72;1735207;82;21390;-81
2022/04/22 11:00:17;;;;;;;34.67;23.75;;;;;;;8.78;100.00;99232.42;1709835;82;21010;-81
2022/04/22 11:02:48;;;;;;;31.50;21.80;;;;;;;8.84;100.00;99235.84;1729690;82;20986;-76
2022/04/22 11:05:30;;;;;;;31.25;22.62;;;;;;;8.89;100.00;99232.42;1705447;83;21037;-73
2022/04/22 11:07:59;;;;;;;34.90;22.17;;;;;;;8.92;100.00;99233.72;1695331;83;20995;-70
2022/04/22 11:10:51;;;;;;;34.78;23.45;;;;;;;8.98;100.00;99234.41;1671876;84;21294;-70
2022/04/22 11:13:38;;;;;;;31.70;21.42;;;;;;;9.03;100.00;99230.17;1703834;82;20960;-71
2022/04/22 11:16:32;;;;;;;31.85;22.48;;;;;;;9.08;100.00;99232.78;1711514;82;21038;-72
2022/04/22 11:19:21;;;;;;;30.20;21.65;;;;;;;9.12;99.78;99232.40;1712954;82;20994;-72
2022/04/22 11:21:58;;;;;;;33.33;20.85;;;;;;;9.16;100.00;99230.09;1715065;82;20928;-72
2022/04/22 11:24:33;;;;;;;32.13;21.00;;;;;;;9.24;99.62;99227.92;1730844;81;21220;-75
2022/04/22 11:27:11;;;;;;;29.55;20.40;;;;;;;9.30;99.70;99236.01;1725300;82;20907;-74
2022/04/22 11:29:48;;;;;;;31.62;21.27;;;;;;;9.35;99.53;99235.31;1728606;82;20903;-72
2022/04/22 11:32:21;;;;;;;29.85;21.15;;;;;;;9.39;98.34;99234.93;1722837;82;20942;-70
2022/04/22 11:35:03;;;;;;;29.05;20.23;;;;;;;9.45;98.93;99228.75;1725492;81;21065;-72
2022/04/22 11:37:37;;;;;;;27.90;20.32;;;;;;;9.51;99.13;99221.45;1715382;82;21056;-73
2022/04/22 11:40:11;;;;;;;30.95;19.57;;;;;;;9.60;98.17;99221.48;1730080;82;20991;-72
2022/04/22 11:42:44;;;;;;;28.57;19.98;;;;;;;9.70;97.89;99227.24;1720910;82;21662;-73
2022/04/22 11:45:16;;;;;;;30.35;20.32;;;;;;;9.79;96.40;99216.55;1728680;82;21023;-71
2022/04/22 11:47:45;;;;;;;28.70;19.37;;;;;;;9.86;96.05;99216.86;1721623;82;21513;-71
2022/04/22 11:50:19;;;;;;;26.07;20.10;;;;;;;9.93;96.98;99225.99;1703173;82;21006;-71
2022/04/22 11:52:56;;;;;;;29.63;20.03;;;;;;;9.94;94.58;99227.05;1713515;81;21061;-72
2022/04/22 11:55:30;;;;;;;30.37;20.82;;;;;;;9.89;94.33;99224.45;1722030;82;21038;-74
2022/04/22 11:58:08;;;;;;;29.80;20.02;;;;;;;9.83;95.37;99224.91;1651817;83;21029;-74
2022/04/22 12:06:26;;;;;;;30.55;19.95;;;;;;;9.65;94.07;99222.71;1678667;83;20855;-77
2022/04/22 12:09:05;;;;;;;26.50;18.30;;;;;;;9.59;94.86;99222.05;1696692;84;21033;-82
2022/04/22 12:11:42;;;;;;;28.62;22.02;;;;;;;9.55;95.93;99222.43;1722004;82;21014;-81
2022/04/22 12:14:14;;;;;;;32.78;22.52;;;;;;;9.53;95.68;99225.24;1702140;82;21042;-82
2022/04/22 12:16:45;;;;;;;29.10;21.15;;;;;;;9.50;96.70;99227.25;1732448;82;21273;-74
2022/04/22 12:19:17;;;;;;;54.85;34.98;;;;;;;9.48;95.94;99229.49;1725321;82;20931;-75
2022/04/22 12:21:49;;;;;;;31.93;22.35;;;;;;;9.46;95.79;99226.27;1700541;82;21104;-74
2022/04/22 12:24:19;;;;;;;29.42;21.62;;;;;;;9.45;95.80;99220.53;1723988;82;20969;-77
2022/04/22 12:26:51;;;;;;;50.40;34.05;;;;;;;9.45;96.56;99223.27;1727933;82;20995;-74
2022/04/22 12:29:17;;;;;;;34.18;21.90;;;;;;;9.44;96.10;99221.09;1727489;81;21254;-73
2022/04/22 12:31:50;;;;;;;29.40;21.12;;;;;;;9.44;96.44;99225.20;1721895;82;20974;-77
2022/04/22 12:34:34;;;;;;;33.88;23.22;;;;;;;9.45;96.21;99230.13;1702076;83;21446;-75
2022/04/22 12:37:07;;;;;;;31.77;22.00;;;;;;;9.45;96.75;99220.53;1721163;82;21033;-77
2022/04/22 12:39:43;;;;;;;29.82;19.50;;;;;;;9.47;96.62;99223.20;1720358;81;21627;-75
2022/04/22 12:42:22;;;;;;;28.20;19.82;;;;;;;9.51;96.87;99220.64;1735655;82;21132;-75